Time;durP1;ratioP1;P1;durP2;ratioP2;P2;SDS_P1;SDS_P2;PMS_P1;PMS_P2;Temp;Humidity;BMP_temperature;BMP_pressure;BME280_temperature;BME280_humidity;BME280_pressure;Samples;Min_cycle;Max_cycle;Signal;HPM_P1;HPM_P2
2021/01/05 04:15:38;;;;;;;41.60;18.60;;;;;;;30.11;54.89;100876.22;6144503;22;2284654;-56
2021/01/05 04:19:52;;;;;;;21.42;15.38;;;;;;;28.79;51.81;100869.97;4976599;27;64794;-56
2021/01/05 04:22:23;;;;;;;20.40;16.00;;;;;;;28.01;51.91;100863.09;4983536;28;69966;-54
2021/01/05 04:24:54;;;;;;;20.15;14.27;;;;;;;27.72;53.14;100866.03;5001847;28;66607;-56
2021/01/05 04:27:26;;;;;;;21.55;14.38;;;;;;;27.48;54.23;100859.28;4956197;28;69545;-56
2021/01/05 04:29:58;;;;;;;18.02;13.82;;;;;;;27.38;54.02;100848.84;5021474;28;66077;-56
2021/01/05 04:32:29;;;;;;;17.02;13.82;;;;;;;27.50;53.84;100847.28;4960004;28;69680;-56
2021/01/05 04:35:01;;;;;;;23.03;13.60;;;;;;;27.44;54.29;100848.03;4944444;28;66397;-55
2021/01/05 04:37:32;;;;;;;13.85;12.50;;;;;;;27.65;53.74;100849.00;4960305;28;70180;-53
2021/01/05 04:40:06;;;;;;;13.90;12.48;;;;;;;27.59;53.57;100840.69;4944699;28;66687;-53
2021/01/05 04:42:42;;;;;;;16.02;12.07;;;;;;;27.57;54.09;100834.66;4959646;28;70564;-53
2021/01/05 04:45:23;;;;;;;12.27;11.20;;;;;;;27.57;53.97;100829.25;4992269;28;65955;-52
2021/01/05 04:48:33;;;;;;;12.13;10.95;;;;;;;27.39;52.26;100823.59;4951924;28;69795;-53
2021/01/05 04:51:29;;;;;;;14.35;11.63;;;;;;;27.23;53.07;100818.50;4962843;28;65312;-52
2021/01/05 04:54:22;;;;;;;13.85;9.15;;;;;;;27.02;53.50;100806.72;4989462;28;70169;-57
2021/01/05 04:57:12;;;;;;;9.88;8.98;;;;;;;27.06;53.67;100801.78;4989574;28;66410;-57
2021/01/05 04:59:48;;;;;;;10.68;9.27;;;;;;;27.04;52.93;100793.91;4988472;28;70293;-57
2021/01/05 05:02:29;;;;;;;9.45;8.23;;;;;;;26.96;52.49;100785.97;5021733;28;66252;-57
2021/01/05 05:05:03;;;;;;;9.60;8.80;;;;;;;27.02;54.83;100790.56;4972018;28;69856;-59
2021/01/05 05:07:50;;;;;;;9.45;8.55;;;;;;;27.11;56.45;100784.00;5005590;28;66348;-56
2021/01/05 05:10:40;;;;;;;9.80;7.75;;;;;;;27.17;56.77;100764.41;4972765;28;69916;-57
2021/01/05 05:13:24;;;;;;;8.45;7.75;;;;;;;27.46;55.10;100767.03;4989110;28;66805;-57
2021/01/05 05:16:06;;;;;;;10.90;7.93;;;;;;;27.46;54.54;100767.88;4972578;28;70091;-55
2021/01/05 05:18:47;;;;;;;7.25;6.72;;;;;;;27.25;53.74;100758.03;4940015;28;66473;-55
2021/01/05 05:21:28;;;;;;;7.53;6.95;;;;;;;27.21;53.79;100758.63;4972516;28;69517;-56
2021/01/05 05:24:24;;;;;;;8.07;7.38;;;;;;;27.11;54.69;100764.34;5004558;28;66554;-57
2021/01/05 05:27:14;;;;;;;7.60;6.88;;;;;;;27.20;56.43;100748.88;5004787;28;70419;-55
2021/01/05 05:29:59;;;;;;;7.28;6.60;;;;;;;27.22;56.29;100752.19;4967146;28;66573;-57
2021/01/05 05:32:36;;;;;;;6.88;6.38;;;;;;;27.19;55.56;100748.03;5008460;28;69503;-54
2021/01/05 05:35:35;;;;;;;7.47;6.70;;;;;;;27.28;54.83;100740.66;4973826;28;65967;-55
2021/01/05 05:38:52;;;;;;;6.47;6.00;;;;;;;27.38;54.90;100733.84;4958227;28;69844;-56
2021/01/05 05:41:51;;;;;;;6.40;5.88;;;;;;;27.52;55.82;100721.25;4941900;28;65937;-55
2021/01/05 05:44:33;;;;;;;5.88;5.38;;;;;;;27.65;56.39;100719.66;4959035;28;69896;-56
2021/01/05 05:47:16;;;;;;;6.25;4.90;;;;;;;27.73;55.52;100716.78;4926738;28;66214;-53
2021/01/05 05:50:08;;;;;;;5.20;4.80;;;;;;;27.68;55.31;100711.16;4913292;28;70311;-54
2021/01/05 05:52:50;;;;;;;;;;;;;;;27.70;55.84;100707.25;4926706;28;66506;-54
2021/01/05 05:55:48;;;;;;;5.53;5.10;;;;;;;27.82;55.58;100700.25;4942443;28;70522;-55
2021/01/05 05:58:28;;;;;;;6.20;4.97;;;;;;;27.85;56.16;100689.03;4942198;28;65901;-55
2021/01/05 06:01:03;;;;;;;5.35;4.95;;;;;;;27.99;56.04;100681.81;4918374;28;70157;-55
2021/01/05 06:03:35;;;;;;;4.68;4.38;;;;;;;28.05;56.34;100678.31;4904120;28;65911;-55
2021/01/05 06:06:06;;;;;;;5.32;4.93;;;;;;;28.06;54.50;100679.97;4919261;28;70471;-55
2021/01/05 06:08:37;;;;;;;5.13;4.75;;;;;;;28.00;54.23;100672.72;4873121;28;66303;-56
2021/01/05 06:11:08;;;;;;;5.65;4.55;;;;;;;27.92;54.32;100672.91;4936028;28;70118;-56
2021/01/05 06:13:41;;;;;;;4.50;4.10;;;;;;;27.86;55.38;100673.72;4843026;28;66606;-57
2021/01/05 06:16:12;;;;;;;4.68;4.38;;;;;;;27.84;55.95;100665.00;4932261;28;70201;-56
2021/01/05 06:18:43;;;;;;;4.50;4.30;;;;;;;27.94;56.41;100670.81;4882217;28;66435;-56
2021/01/05 06:21:15;;;;;;;4.35;4.05;;;;;;;28.04;56.49;100660.47;4872834;28;70745;-56
2021/01/05 06:23:46;;;;;;;5.97;4.53;;;;;;;28.11;56.22;100657.78;4873295;28;66298;-56
2021/01/05 06:26:19;;;;;;;6.30;3.83;;;;;;;28.13;55.51;100649.47;4921158;28;70091;-56
2021/01/05 06:28:50;;;;;;;3.97;3.67;;;;;;;28.13;55.39;100646.78;4871807;28;66255;-54
2021/01/05 06:31:21;;;;;;;4.40;4.10;;;;;;;28.11;55.10;100643.44;4871863;28;70300;-54
2021/01/05 06:33:53;;;;;;;4.00;3.70;;;;;;;27.99;55.98;100645.94;4903172;28;66432;-56
2021/01/05 06:36:26;;;;;;;4.82;4.07;;;;;;;28.00;56.64;100637.66;4904234;28;70553;-60
2021/01/05 06:38:58;;;;;;;4.65;4.25;;;;;;;28.03;56.92;100636.41;4884862;28;66769;-56
2021/01/05 06:41:30;;;;;;;3.92;3.58;;;;;;;28.03;56.96;100621.06;4899648;28;69433;-58
2021/01/05 06:44:01;;;;;;;4.43;4.03;;;;;;;28.23;56.22;100631.00;4931229;28;66458;-56
2021/01/05 06:46:34;;;;;;;3.90;3.70;;;;;;;28.20;54.84;100631.44;4893447;28;69830;-57
2021/01/05 06:49:06;;;;;;;7.05;3.30;;;;;;;28.00;54.38;100610.69;4909739;28;66266;-55
2021/01/05 06:51:37;;;;;;;3.80;3.50;;;;;;;28.17;55.05;100621.06;4893074;28;69949;-55
2021/01/05 06:54:08;;;;;;;3.70;3.40;;;;;;;28.26;55.64;100620.63;4884986;28;66504;-54
2021/01/05 06:56:56;;;;;;;3.23;3.03;;;;;;;28.27;55.09;100616.06;4930882;28;70554;-54
2021/01/05 06:59:28;;;;;;;3.47;3.28;;;;;;;28.29;55.81;100616.69;4923634;28;65876;-53
2021/01/05 07:02:03;;;;;;;3.22;3.03;;;;;;;28.35;56.00;100601.53;4923536;28;69062;-56
2021/01/05 07:04:35;;;;;;;3.40;3.20;;;;;;;28.40;55.62;100602.56;4924948;28;66638;-54
2021/01/05 07:07:07;;;;;;;3.13;2.92;;;;;;;28.35;54.12;100602.34;4862934;28;70473;-53
2021/01/05 07:09:39;;;;;;;4.13;2.80;;;;;;;28.23;53.74;100598.66;4892296;28;66708;-54
2021/01/05 07:12:10;;;;;;;2.40;2.30;;;;;;;28.13;54.48;100598.22;4918088;28;70293;-54
2021/01/05 07:14:41;;;;;;;2.97;2.70;;;;;;;28.13;55.31;100598.22;4882660;28;66348;-53
2021/01/05 07:17:13;;;;;;;2.78;2.63;;;;;;;28.17;55.95;100594.09;4947459;28;69828;-55
2021/01/05 07:19:45;;;;;;;2.60;2.40;;;;;;;28.17;56.49;100577.91;4901235;28;65831;-53
2021/01/05 07:22:16;;;;;;;2.90;2.80;;;;;;;28.35;55.87;100591.56;4914660;28;69821;-53
2021/01/05 07:24:48;;;;;;;3.13;2.92;;;;;;;28.35;55.42;100596.13;4949427;28;65839;-54
2021/01/05 07:27:19;;;;;;;2.40;2.30;;;;;;;28.31;53.70;100598.44;4969834;28;70231;-52
2021/01/05 07:29:50;;;;;;;2.97;2.78;;;;;;;28.22;53.51;100602.38;4925232;28;66288;-53
2021/01/05 07:32:21;;;;;;;2.50;2.30;;;;;;;28.14;53.77;100597.19;4940738;28;70256;-52
2021/01/05 07:34:52;;;;;;;2.33;2.13;;;;;;;28.07;54.72;100592.63;4924142;28;66376;-54
2021/01/05 07:37:29;;;;;;;2.28;2.15;;;;;;;28.08;55.41;100590.75;4974037;28;69697;-53
2021/01/05 07:40:01;;;;;;;2.15;2.05;;;;;;;28.17;55.33;100594.09;4911119;28;66514;-51
2021/01/05 07:42:33;;;;;;;2.47;2.28;;;;;;;28.31;55.81;100584.94;4923670;28;70389;-51
2021/01/05 07:45:08;;;;;;;2.20;2.10;;;;;;;28.37;54.55;100589.50;4893675;28;66679;-56
2021/01/05 07:47:39;;;;;;;2.60;2.40;;;;;;;28.31;53.08;100590.34;4986109;28;70331;-52
2021/01/05 07:50:22;;;;;;;2.47;2.10;;;;;;;28.24;52.71;100597.59;4955391;28;66838;-52
2021/01/05 07:52:57;;;;;;;2.22;2.13;;;;;;;28.11;53.94;100592.22;4984858;28;70545;-54
2021/01/05 07:55:30;;;;;;;2.53;2.33;;;;;;;28.09;54.93;100591.63;4892445;28;65836;-53
2021/01/05 07:58:01;;;;;;;2.33;2.13;;;;;;;28.13;55.77;100590.13;4904688;28;70239;-54
2021/01/05 08:00:34;;;;;;;2.45;2.25;;;;;;;28.23;55.92;100593.25;4988817;28;66374;-52
2021/01/05 08:03:05;;;;;;;1.80;1.70;;;;;;;28.31;55.74;100584.94;4970609;28;70353;-51
2021/01/05 08:05:37;;;;;;;3.97;2.13;;;;;;;28.34;54.60;100581.81;4955099;28;66556;-52
2021/01/05 08:08:08;;;;;;;3.95;1.90;;;;;;;28.24;53.76;100584.94;4969487;28;70366;-54
2021/01/05 08:10:40;;;;;;;3.75;1.65;;;;;;;28.16;53.34;100592.41;4970276;28;65084;-54
2021/01/05 08:13:13;;;;;;;2.70;2.38;;;;;;;28.02;54.59;100586.19;4954171;28;70506;-56
2021/01/05 08:15:43;;;;;;;;;;;;;;;27.88;55.83;100589.94;4971959;28;66478;-55
2021/01/05 08:18:15;;;;;;;2.45;2.13;;;;;;;28.04;56.10;100595.75;4953183;28;70632;-53
2021/01/05 08:20:47;;;;;;;2.97;2.10;;;;;;;28.16;56.65;100600.50;4987419;28;66791;-54
2021/01/05 08:23:18;;;;;;;2.20;2.00;;;;;;;28.29;56.43;100600.50;4983950;28;70630;-55
2021/01/05 08:25:50;;;;;;;2.13;1.95;;;;;;;28.32;55.20;100599.25;4974458;28;65889;-55
2021/01/05 08:28:23;;;;;;;2.17;2.08;;;;;;;28.30;53.84;100599.44;4941955;28;70632;-54
2021/01/05 08:30:55;;;;;;;2.80;2.60;;;;;;;28.24;53.20;100603.00;4989661;28;66739;-54
2021/01/05 08:33:26;;;;;;;6.95;2.65;;;;;;;28.12;54.12;100607.38;4895305;28;69760;-54
2021/01/05 08:35:58;;;;;;;2.75;2.38;;;;;;;28.04;55.25;100606.53;4941971;28;65362;-53
2021/01/05 08:38:30;;;;;;;2.45;2.22;;;;;;;28.13;55.85;100606.31;5022494;28;69661;-51
2021/01/05 08:41:01;;;;;;;2.55;2.35;;;;;;;28.25;56.15;100613.59;4955128;28;66344;-54
2021/01/05 08:43:32;;;;;;;3.75;2.53;;;;;;;28.36;56.01;100625.63;4974373;28;70333;-53
2021/01/05 08:46:04;;;;;;;2.60;2.40;;;;;;;28.34;54.63;100627.69;4955735;28;66737;-54
2021/01/05 08:48:35;;;;;;;4.43;1.95;;;;;;;28.26;53.55;100630.59;4954120;28;70299;-55
2021/01/05 08:51:07;;;;;;;3.00;2.72;;;;;;;28.14;53.98;100637.63;4973560;28;66769;-55
2021/01/05 08:53:38;;;;;;;2.95;2.70;;;;;;;28.06;55.27;100636.81;4942525;28;70421;-56
2021/01/05 08:56:24;;;;;;;3.03;2.83;;;;;;;28.04;56.03;100644.28;4989019;28;65365;-55
2021/01/05 08:58:56;;;;;;;3.35;2.80;;;;;;;28.15;56.48;100656.31;4878263;28;70449;-55
2021/01/05 09:01:28;;;;;;;3.30;3.00;;;;;;;28.26;56.40;100654.88;4972576;28;66677;-55
2021/01/05 09:03:59;;;;;;;3.33;3.03;;;;;;;28.36;56.28;100660.69;4989450;28;70304;-55
2021/01/05 09:06:30;;;;;;;3.37;3.13;;;;;;;28.36;55.35;100663.38;4927137;28;66393;-54
2021/01/05 09:09:01;;;;;;;3.55;3.25;;;;;;;28.31;54.09;100660.47;4944497;28;70267;-54
2021/01/05 09:11:33;;;;;;;3.43;3.13;;;;;;;28.20;53.28;100658.41;4944578;28;66721;-55
2021/01/05 09:14:04;;;;;;;4.03;3.72;;;;;;;28.03;54.69;100668.78;4937663;28;69782;-55
2021/01/05 09:16:35;;;;;;;3.77;3.57;;;;;;;28.03;55.44;100663.38;4911074;28;64847;-56
2021/01/05 09:19:06;;;;;;;7.30;3.40;;;;;;;28.09;56.08;100662.53;4911106;28;69676;-55
2021/01/05 09:21:38;;;;;;;3.47;3.27;;;;;;;28.14;55.86;100661.91;4925800;28;66613;-56
2021/01/05 09:24:09;;;;;;;4.38;4.07;;;;;;;28.18;55.94;100673.97;4927593;28;70590;-55
2021/01/05 09:26:41;;;;;;;4.38;4.07;;;;;;;28.16;56.54;100676.84;4910933;28;66407;-56
2021/01/05 09:29:13;;;;;;;4.25;3.90;;;;;;;28.22;56.74;100675.19;4895948;28;70254;-56
2021/01/05 09:31:46;;;;;;;4.35;3.97;;;;;;;28.26;57.08;100679.97;4941257;28;66237;-55
2021/01/05 09:34:20;;;;;;;5.00;4.63;;;;;;;28.36;57.03;100684.97;4925854;28;69510;-55
2021/01/05 09:36:52;;;;;;;4.90;4.60;;;;;;;28.33;57.24;100679.97;4926722;28;66339;-55
2021/01/05 09:39:24;;;;;;;4.22;3.92;;;;;;;28.35;55.92;100702.16;4895358;28;70659;-54
2021/01/05 09:42:06;;;;;;;6.10;5.68;;;;;;;28.25;56.95;100697.19;4895161;28;66291;-57
2021/01/05 09:44:37;;;;;;;8.68;7.97;;;;;;;28.07;57.55;100680.78;4942176;28;69759;-56
2021/01/05 09:47:08;;;;;;;11.57;6.72;;;;;;;28.27;57.09;100715.84;4905268;28;66378;-54
2021/01/05 09:49:39;;;;;;;10.07;7.00;;;;;;;28.31;57.39;100714.44;4952447;28;69570;-51
2021/01/05 09:52:10;;;;;;;10.90;7.60;;;;;;;28.36;57.69;100722.72;4934609;28;66484;-53
2021/01/05 09:54:47;;;;;;;8.10;7.20;;;;;;;28.44;57.66;100717.13;4959667;28;69078;-53
2021/01/05 09:57:18;;;;;;;10.82;6.78;;;;;;;28.50;57.43;100718.16;4991268;28;66270;-53
2021/01/05 09:59:49;;;;;;;10.20;7.53;;;;;;;28.59;57.30;100716.13;4959594;28;70768;-53
2021/01/05 10:02:21;;;;;;;14.30;8.40;;;;;;;28.63;57.52;100720.03;4944415;28;66480;-53
2021/01/05 10:04:51;;;;;;;8.57;7.38;;;;;;;28.69;57.63;100720.03;4992008;28;69520;-53
2021/01/05 10:07:24;;;;;;;13.55;8.13;;;;;;;28.74;57.39;100724.81;4975328;28;65787;-53
2021/01/05 10:09:55;;;;;;;11.88;6.80;;;;;;;28.78;57.46;100734.16;4991371;28;69230;-53
2021/01/05 10:12:26;;;;;;;13.15;7.90;;;;;;;28.84;57.33;100737.88;4960583;28;66506;-53
2021/01/05 10:14:58;;;;;;;10.57;7.50;;;;;;;28.86;56.87;100728.53;4992532;28;69561;-53
2021/01/05 10:17:30;;;;;;;8.48;7.65;;;;;;;28.91;57.06;100731.41;4958656;28;66324;-53
2021/01/05 10:20:02;;;;;;;7.67;7.00;;;;;;;28.94;56.98;100730.16;4975429;28;70182;-53
2021/01/05 10:22:34;;;;;;;14.73;7.30;;;;;;;28.99;57.22;100724.16;4976479;28;65319;-53
2021/01/05 10:25:10;;;;;;;8.35;7.38;;;;;;;28.97;56.97;100724.34;4942804;28;70184;-54
2021/01/05 10:27:41;;;;;;;10.10;7.50;;;;;;;29.04;56.87;100741.41;4974166;28;65402;-53
2021/01/05 10:30:17;;;;;;;8.23;7.47;;;;;;;29.07;57.14;100740.97;4943743;28;69868;-54
2021/01/05 10:32:49;;;;;;;9.48;6.70;;;;;;;29.10;57.23;100755.94;4943684;28;66468;-53
2021/01/05 10:35:21;;;;;;;;;;;;;;;28.88;57.57;100760.72;4975533;28;70458;-53
2021/01/05 10:37:52;;;;;;;12.02;7.15;;;;;;;29.12;57.14;100770.06;4990724;28;65885;-53
2021/01/05 10:40:23;;;;;;;7.68;6.97;;;;;;;29.15;57.15;100770.47;4991091;28;70141;-53
2021/01/05 10:42:54;;;;;;;7.53;6.90;;;;;;;29.17;56.75;100765.69;4942973;28;66533;-53
2021/01/05 10:45:29;;;;;;;7.82;7.03;;;;;;;29.22;56.59;100765.03;4975373;28;69877;-53
2021/01/05 10:48:00;;;;;;;7.43;6.82;;;;;;;29.24;56.83;100772.94;4958889;28;66547;-53
2021/01/05 10:50:31;;;;;;;12.15;6.90;;;;;;;29.26;56.71;100776.28;4958207;28;70213;-53
2021/01/05 10:53:02;;;;;;;7.60;6.88;;;;;;;29.28;56.69;100775.03;4990852;28;65708;-53
2021/01/05 10:55:33;;;;;;;7.70;7.00;;;;;;;29.29;56.78;100782.06;4975686;28;69516;-53
2021/01/05 10:58:04;;;;;;;7.87;7.07;;;;;;;29.30;56.79;100783.72;4974899;28;66358;-53
2021/01/05 11:00:35;;;;;;;10.52;7.78;;;;;;;29.31;56.58;100781.84;4975348;28;69559;-54
2021/01/05 11:03:07;;;;;;;7.97;7.35;;;;;;;29.34;56.75;100797.66;4959006;28;66635;-53
2021/01/05 11:05:38;;;;;;;10.30;7.47;;;;;;;29.35;56.34;100796.59;4975195;28;70684;-53
2021/01/05 11:08:09;;;;;;;7.90;7.13;;;;;;;29.38;56.25;100788.88;4958202;28;65600;-53
2021/01/05 11:10:40;;;;;;;7.13;6.57;;;;;;;29.39;56.22;100793.28;4959278;28;70287;-53
2021/01/05 11:13:11;;;;;;;8.17;6.80;;;;;;;29.40;56.21;100794.91;5007999;28;66352;-53
2021/01/05 11:15:42;;;;;;;7.65;6.90;;;;;;;29.42;56.29;100801.97;4991241;28;70236;-53
2021/01/05 11:18:13;;;;;;;14.30;8.07;;;;;;;29.44;56.10;100797.19;4973704;28;66447;-53
2021/01/05 11:20:44;;;;;;;7.43;6.25;;;;;;;29.46;56.12;100797.81;5005601;28;70594;-53
2021/01/05 11:23:16;;;;;;;8.57;7.35;;;;;;;29.46;56.26;100800.53;4976177;28;64813;-53
2021/01/05 11:25:47;;;;;;;7.70;7.10;;;;;;;29.46;56.50;100809.47;4975293;28;70390;-53
2021/01/05 11:28:18;;;;;;;7.25;6.55;;;;;;;29.50;56.61;100815.25;4972075;28;65754;-54
2021/01/05 11:30:50;;;;;;;8.40;7.67;;;;;;;29.50;56.21;100820.66;4958244;28;69491;-53
2021/01/05 11:33:21;;;;;;;7.50;6.80;;;;;;;29.44;56.11;100799.91;4959878;28;66346;-53
2021/01/05 11:35:52;;;;;;;10.73;6.82;;;;;;;29.53;56.00;100821.09;4942735;28;69552;-53
2021/01/05 11:38:24;;;;;;;10.18;7.00;;;;;;;29.53;56.56;100820.25;4973212;28;65593;-53
2021/01/05 11:41:43;;;;;;;7.40;6.85;;;;;;;29.53;56.48;100822.94;4961538;28;70244;-53
2021/01/05 11:44:16;;;;;;;8.57;7.07;;;;;;;29.54;56.13;100827.31;4963813;28;66509;-53
2021/01/05 11:46:48;;;;;;;7.47;6.85;;;;;;;29.59;56.34;100830.22;4940908;28;70357;-53
2021/01/05 11:49:20;;;;;;;7.85;7.18;;;;;;;29.58;55.87;100817.72;4990308;28;66352;-53
2021/01/05 11:51:55;;;;;;;7.55;6.95;;;;;;;29.60;56.06;100826.47;4975582;28;70611;-53
2021/01/05 11:54:27;;;;;;;7.72;6.70;;;;;;;29.61;56.49;100836.22;4942746;28;66450;-54
2021/01/05 11:57:00;;;;;;;7.17;6.60;;;;;;;29.62;56.02;100829.78;5006346;28;70287;-54
2021/01/05 11:59:31;;;;;;;7.25;6.57;;;;;;;29.63;56.28;100828.78;4974660;28;66268;-53
2021/01/05 12:02:03;;;;;;;7.50;6.60;;;;;;;29.64;56.32;100827.72;4957918;28;69722;-53
2021/01/05 12:04:34;;;;;;;9.48;7.32;;;;;;;29.63;55.95;100828.78;4942245;28;66564;-53
2021/01/05 12:07:06;;;;;;;6.93;6.32;;;;;;;29.64;56.55;100824.19;4957469;28;70301;-53
2021/01/05 12:09:39;;;;;;;6.72;6.10;;;;;;;29.65;56.40;100818.59;4911725;28;66716;-53
2021/01/05 12:12:14;;;;;;;7.15;6.45;;;;;;;29.66;56.39;100830.22;4991181;28;69788;-53
2021/01/05 12:14:45;;;;;;;7.53;6.85;;;;;;;29.67;56.04;100824.63;4941756;28;66418;-53
2021/01/05 12:17:16;;;;;;;7.82;6.53;;;;;;;29.66;55.89;100832.91;4957153;28;70373;-53
2021/01/05 12:19:47;;;;;;;7.30;6.32;;;;;;;29.38;55.93;100790.78;4973415;28;66762;-53
2021/01/05 12:22:18;;;;;;;7.07;6.50;;;;;;;29.70;56.35;100843.09;4990486;28;70463;-53
2021/01/05 12:24:52;;;;;;;7.32;6.63;;;;;;;29.70;56.03;100847.66;4973804;28;66276;-53
2021/01/05 12:27:24;;;;;;;7.28;6.55;;;;;;;29.71;56.23;100849.34;4971779;28;69791;-53
2021/01/05 12:29:56;;;;;;;7.22;6.55;;;;;;;29.71;56.11;100852.88;4992072;28;65953;-53
2021/01/05 12:32:28;;;;;;;11.75;6.40;;;;;;;29.70;56.15;100848.50;4989498;28;71311;-53
2021/01/05 12:35:00;;;;;;;;;;;;;;;29.48;56.51;100841.69;4941583;28;65964;-53
2021/01/05 12:37:31;;;;;;;6.43;5.93;;;;;;;29.70;55.97;100847.66;4956022;28;70084;-53
2021/01/05 12:40:03;;;;;;;8.30;6.00;;;;;;;29.69;56.00;100832.50;4973364;28;66526;-53
2021/01/05 12:42:35;;;;;;;7.10;6.57;;;;;;;29.69;56.06;100833.31;4961307;28;70854;-53
2021/01/05 12:45:09;;;;;;;6.95;6.32;;;;;;;29.75;56.12;100831.63;4978632;28;66055;-53
2021/01/05 12:47:41;;;;;;;6.30;5.90;;;;;;;29.75;56.20;100835.16;4991659;28;70546;-53
2021/01/05 12:50:17;;;;;;;8.40;6.80;;;;;;;29.75;56.03;100840.56;4993442;28;65893;-53
2021/01/05 12:52:50;;;;;;;6.32;5.82;;;;;;;29.76;56.07;100844.13;4961351;28;69793;-53
2021/01/05 12:55:22;;;;;;;7.25;6.35;;;;;;;29.68;55.87;100818.16;4961285;28;66329;-53
2021/01/05 12:57:54;;;;;;;6.43;6.00;;;;;;;29.76;56.24;100836.00;4928220;28;70487;-53
2021/01/05 13:00:25;;;;;;;8.95;6.03;;;;;;;29.75;55.95;100835.16;4929561;28;66266;-53
2021/01/05 13:02:57;;;;;;;6.07;5.68;;;;;;;29.75;56.27;100835.16;4960695;28;70230;-53
2021/01/05 13:05:28;;;;;;;7.03;6.40;;;;;;;29.76;55.67;100836.84;4961826;28;67335;-53
2021/01/05 13:08:00;;;;;;;6.40;5.88;;;;;;;29.78;55.75;100840.16;4974959;28;70155;-53
2021/01/05 13:10:36;;;;;;;7.97;6.53;;;;;;;29.75;55.67;100837.88;4977951;28;65107;-53
2021/01/05 13:13:07;;;;;;;7.18;6.68;;;;;;;29.78;56.24;100848.28;5009296;28;70147;-53
2021/01/05 13:15:44;;;;;;;6.97;6.30;;;;;;;29.79;55.85;100839.13;4932361;28;66280;-53
2021/01/05 13:18:16;;;;;;;7.65;6.93;;;;;;;29.80;56.04;100843.47;4960148;28;69648;-53
2021/01/05 13:21:12;;;;;;;6.57;6.07;;;;;;;29.80;55.84;100859.69;4925000;28;65738;-53
2021/01/05 13:23:44;;;;;;;7.60;6.13;;;;;;;29.80;55.72;100859.69;4954676;28;69191;-53
2021/01/05 13:26:42;;;;;;;7.40;6.70;;;;;;;29.81;55.86;100866.78;4964738;28;66723;-53
2021/01/05 13:29:34;;;;;;;7.15;6.57;;;;;;;29.82;55.79;100854.91;4923999;28;69816;-53
2021/01/05 13:32:11;;;;;;;7.35;6.55;;;;;;;29.82;56.16;100857.59;4921592;28;66589;-53
2021/01/05 13:35:04;;;;;;;6.70;6.20;;;;;;;29.81;56.16;100853.25;4920040;28;70593;-53
2021/01/05 13:37:41;;;;;;;7.22;6.53;;;;;;;29.82;55.86;100857.59;4917756;28;66198;-53
2021/01/05 13:40:12;;;;;;;6.28;5.88;;;;;;;29.82;56.26;100857.59;4881105;28;70252;-53
2021/01/05 13:42:47;;;;;;;7.05;6.28;;;;;;;29.81;56.16;100855.97;4878672;28;66400;-53
2021/01/05 13:45:20;;;;;;;7.07;6.47;;;;;;;29.83;56.24;100859.25;4864808;28;69839;-53
2021/01/05 13:47:53;;;;;;;9.88;6.38;;;;;;;29.83;56.28;100856.56;4879005;28;66378;-53
2021/01/05 13:50:28;;;;;;;6.68;6.13;;;;;;;29.82;56.17;100852.19;4878813;28;70002;-53
2021/01/05 13:53:01;;;;;;;6.57;6.07;;;;;;;29.84;56.16;100843.88;4863800;28;66431;-53
2021/01/05 13:55:34;;;;;;;6.97;6.47;;;;;;;29.83;55.83;100843.03;4889676;29;70423;-53
2021/01/05 13:58:06;;;;;;;6.93;6.38;;;;;;;29.85;56.27;100850.94;4831871;28;67197;-53
2021/01/05 14:00:42;;;;;;;6.70;6.20;;;;;;;29.87;56.42;100848.88;4892703;28;69100;-53
2021/01/05 14:03:21;;;;;;;7.47;6.30;;;;;;;29.87;55.93;100864.25;4911641;28;66103;-53
2021/01/05 14:05:52;;;;;;;7.63;6.83;;;;;;;29.86;56.00;100865.28;4878450;28;69687;-53
2021/01/05 14:08:25;;;;;;;7.63;7.03;;;;;;;29.86;55.97;100873.41;4893335;28;65713;-53
2021/01/05 14:11:00;;;;;;;7.00;6.50;;;;;;;29.87;55.87;100880.50;4878026;28;70684;-54
2021/01/05 14:13:55;;;;;;;6.82;6.32;;;;;;;29.88;55.92;100865.91;4893058;28;66856;-53
2021/01/05 14:16:30;;;;;;;7.75;6.93;;;;;;;29.88;56.29;100871.31;4863762;28;69914;-54
2021/01/05 14:19:06;;;;;;;7.07;6.38;;;;;;;29.88;56.25;100871.31;4921610;28;66103;-53
2021/01/05 14:21:39;;;;;;;7.28;6.72;;;;;;;29.88;56.43;100874.84;4891587;28;69867;-53
2021/01/05 14:24:43;;;;;;;7.82;7.13;;;;;;;29.88;56.48;100874.03;4941699;28;66843;-53
2021/01/05 14:27:19;;;;;;;7.90;7.10;;;;;;;29.89;56.11;100872.97;4898118;28;70246;-53
2021/01/05 14:30:39;;;;;;;8.23;7.05;;;;;;;29.86;56.03;100859.88;4896460;28;65879;-53
2021/01/05 14:33:13;;;;;;;8.40;6.90;;;;;;;29.88;56.50;100853.22;4913640;28;69019;-53
2021/01/05 14:35:48;;;;;;;7.63;7.03;;;;;;;29.89;55.93;100843.22;4904748;28;66304;-53
2021/01/05 14:38:21;;;;;;;7.75;7.10;;;;;;;29.85;56.09;100840.13;4854753;28;70434;-53
2021/01/05 14:40:54;;;;;;;8.35;7.55;;;;;;;29.90;56.41;100851.13;4966258;28;66107;-53
2021/01/05 14:43:26;;;;;;;8.63;6.95;;;;;;;29.90;55.81;100863.84;4901091;28;70280;-53
2021/01/05 14:46:01;;;;;;;7.88;7.15;;;;;;;29.90;56.17;100864.66;4948757;28;65246;-53
2021/01/05 14:48:54;;;;;;;7.72;7.22;;;;;;;29.90;56.15;100866.53;4947886;28;69568;-53
2021/01/05 14:51:30;;;;;;;7.90;7.30;;;;;;;29.91;56.41;100860.91;4880747;28;65878;-53
2021/01/05 14:54:04;;;;;;;8.45;7.65;;;;;;;29.90;55.92;100875.47;4912088;28;69142;-54
2021/01/05 14:56:45;;;;;;;9.05;7.53;;;;;;;29.91;56.38;100871.72;4897117;28;66620;-54
2021/01/05 14:59:17;;;;;;;7.85;7.25;;;;;;;29.90;56.23;100871.94;4881755;28;69780;-53
2021/01/05 15:01:49;;;;;;;10.05;7.07;;;;;;;29.91;56.14;100871.72;4906923;28;66344;-53
2021/01/05 15:04:22;;;;;;;7.85;7.15;;;;;;;29.92;56.65;100864.44;4941982;28;70542;-53
2021/01/05 15:06:57;;;;;;;7.28;6.63;;;;;;;29.92;55.83;100856.31;4911606;28;65850;-52
2021/01/05 15:09:29;;;;;;;8.48;7.60;;;;;;;29.92;56.58;100851.75;4974722;28;69719;-53
2021/01/05 15:12:03;;;;;;;10.10;7.28;;;;;;;29.88;56.41;100833.47;4958301;28;66288;-53
2021/01/05 15:14:36;;;;;;;8.00;7.20;;;;;;;29.91;56.09;100843.84;4958681;28;70336;-54
2021/01/05 15:17:08;;;;;;;8.25;7.60;;;;;;;29.91;56.30;100838.44;4940837;28;65906;-53
2021/01/05 15:19:39;;;;;;;7.80;7.13;;;;;;;29.92;56.10;100840.09;4990161;28;70321;-53
2021/01/05 15:22:11;;;;;;;8.93;7.38;;;;;;;29.91;55.98;100835.75;4881776;28;66411;-53
2021/01/05 15:24:43;;;;;;;8.77;7.53;;;;;;;29.93;56.46;100830.94;4958191;28;70454;-53
2021/01/05 15:27:16;;;;;;;10.45;7.70;;;;;;;29.93;56.00;100836.34;4926684;28;66699;-53
2021/01/05 15:29:47;;;;;;;7.95;7.13;;;;;;;29.92;56.46;100840.94;4895369;28;70617;-52
2021/01/05 15:32:20;;;;;;;8.65;7.85;;;;;;;29.94;56.46;100827.19;4959109;28;65875;-53
2021/01/05 15:34:51;;;;;;;7.75;7.13;;;;;;;29.86;56.07;100819.31;4959532;28;70213;-52
2021/01/05 15:37:23;;;;;;;7.77;7.10;;;;;;;29.92;56.39;100824.72;4940809;28;66540;-53
2021/01/05 15:39:55;;;;;;;7.25;6.63;;;;;;;29.93;56.55;100817.44;4975214;28;69741;-53
2021/01/05 15:42:27;;;;;;;7.00;6.40;;;;;;;29.95;56.00;100828.84;4974773;28;65785;-53
2021/01/05 15:44:58;;;;;;;6.97;6.35;;;;;;;29.95;56.06;100826.13;4990771;28;70408;-53
2021/01/05 15:47:29;;;;;;;8.20;7.43;;;;;;;29.93;56.00;100820.13;4960208;28;66454;-52
2021/01/05 15:50:00;;;;;;;8.45;6.25;;;;;;;29.96;56.21;100822.41;4960359;28;69861;-53
2021/01/05 15:52:33;;;;;;;8.75;6.50;;;;;;;29.96;55.83;100814.28;4977397;28;66524;-53
2021/01/05 15:55:03;;;;;;;;;;;;;;;29.69;56.58;100808.97;4977770;28;70787;-53
2021/01/05 15:57:36;;;;;;;7.47;6.87;;;;;;;29.87;56.12;100804.78;5009389;28;66255;-53
2021/01/05 16:00:09;;;;;;;;;;;;;;;29.68;56.55;100807.34;4977766;28;70616;-53
2021/01/05 16:02:40;;;;;;;7.40;6.72;;;;;;;29.92;56.46;100813.03;4960820;28;66230;-52
2021/01/05 16:05:11;;;;;;;6.75;6.30;;;;;;;29.96;56.04;100811.59;4960619;28;69856;-53
2021/01/05 16:08:03;;;;;;;7.93;7.18;;;;;;;29.87;56.41;100811.00;4961029;28;66105;-53
2021/01/05 16:10:49;;;;;;;8.52;7.40;;;;;;;29.95;55.95;100812.59;5010021;28;70497;-53
2021/01/05 16:13:22;;;;;;;7.28;6.70;;;;;;;29.94;55.81;100811.78;4977010;28;66783;-52
2021/01/05 16:15:53;;;;;;;7.18;6.40;;;;;;;29.95;55.93;100815.31;4960821;28;70515;-53